Time;durP1;ratioP1;P1;durP2;ratioP2;P2;SDS_P1;SDS_P2;PMS_P1;PMS_P2;Temp;Humidity;BMP_temperature;BMP_pressure;BME280_temperature;BME280_humidity;BME280_pressure;Samples;Min_cycle;Max_cycle;Signal;HPM_P1;HPM_P2
2023/09/15 06:02:26;;;;;;;11.87;7.00;;;;;;;;;;5034020;23;20869;-73
2023/09/15 06:04:54;;;;;;;14.63;6.83;;;;;;;;;;4974327;28;20440;-72
2023/09/15 06:07:20;;;;;;;11.13;6.20;;;;;;;;;;4972957;28;20447;-72
2023/09/15 06:09:47;;;;;;;14.40;7.27;;;;;;;;;;4974175;28;20741;-71
2023/09/15 06:12:13;;;;;;;12.43;5.70;;;;;;;;;;4973815;28;20423;-71
2023/09/15 06:14:40;;;;;;;9.00;6.57;;;;;;;;;;4973954;28;20436;-71
2023/09/15 06:17:05;;;;;;;9.70;6.10;;;;;;;;;;4973990;28;20470;-70
2023/09/15 06:19:31;;;;;;;14.30;6.97;;;;;;;;;;4973499;28;20463;-66
2023/09/15 06:21:57;;;;;;;13.00;6.40;;;;;;;;;;4973356;28;20452;-66
2023/09/15 06:24:23;;;;;;;12.50;6.77;;;;;;;;;;4969424;28;20436;-66
2023/09/15 06:26:49;;;;;;;11.40;6.80;;;;;;;;;;4970772;28;20427;-67
2023/09/15 06:29:15;;;;;;;12.13;7.07;;;;;;;;;;4973227;28;20455;-66
2023/09/15 06:31:41;;;;;;;12.23;7.83;;;;;;;;;;4972862;28;20432;-67
2023/09/15 06:34:08;;;;;;;12.27;6.50;;;;;;;;;;4973801;28;20779;-67
2023/09/15 06:36:36;;;;;;;12.63;7.87;;;;;;;;;;4972636;28;20420;-66
2023/09/15 06:39:02;;;;;;;20.07;7.37;;;;;;;;;;4973437;28;20567;-66
2023/09/15 06:41:28;;;;;;;15.70;7.63;;;;;;;;;;4973045;28;20746;-66
2023/09/15 06:43:54;;;;;;;15.90;8.00;;;;;;;;;;4971192;28;21062;-66
2023/09/15 06:46:22;;;;;;;8.93;6.63;;;;;;;;;;4973361;28;20427;-66
2023/09/15 06:48:48;;;;;;;16.17;7.87;;;;;;;;;;4973151;28;20420;-66
2023/09/15 06:51:14;;;;;;;16.10;8.20;;;;;;;;;;4972613;28;20451;-65
2023/09/15 06:53:40;;;;;;;15.27;7.40;;;;;;;;;;4973023;28;20423;-67
2023/09/15 06:56:06;;;;;;;13.80;8.00;;;;;;;;;;4971735;28;20431;-67
2023/09/15 06:58:32;;;;;;;16.30;7.53;;;;;;;;;;4972908;28;20543;-67
2023/09/15 07:00:58;;;;;;;10.43;7.30;;;;;;;;;;4972133;28;20466;-66
2023/09/15 07:03:26;;;;;;;12.07;6.97;;;;;;;;;;4973006;28;20948;-66
2023/09/15 07:05:52;;;;;;;12.80;7.63;;;;;;;;;;4973513;28;20411;-66
2023/09/15 07:08:18;;;;;;;10.80;6.60;;;;;;;;;;4978240;28;20450;-66
2023/09/15 07:10:44;;;;;;;12.63;7.13;;;;;;;;;;4976887;28;20483;-67
2023/09/15 07:13:10;;;;;;;9.40;6.87;;;;;;;;;;4972660;28;20451;-66
2023/09/15 07:15:36;;;;;;;11.57;7.43;;;;;;;;;;4972045;28;20518;-67
2023/09/15 07:18:06;;;;;;;16.80;8.10;;;;;;;;;;4972306;28;20554;-68
2023/09/15 07:20:32;;;;;;;13.07;7.90;;;;;;;;;;4970749;28;20870;-66
2023/09/15 07:22:58;;;;;;;11.13;7.40;;;;;;;;;;4977211;28;20503;-66
2023/09/15 07:25:24;;;;;;;11.03;6.57;;;;;;;;;;4967719;29;20408;-67
2023/09/15 07:27:50;;;;;;;10.63;6.93;;;;;;;;;;4968424;28;20417;-67
2023/09/15 07:30:16;;;;;;;17.63;7.77;;;;;;;;;;4953754;29;20412;-66
2023/09/15 07:32:43;;;;;;;12.33;6.80;;;;;;;;;;4953258;28;20440;-67
2023/09/15 07:35:10;;;;;;;13.80;6.50;;;;;;;;;;4953551;29;20448;-66
2023/09/15 07:37:36;;;;;;;14.23;8.13;;;;;;;;;;4969742;28;20430;-66
2023/09/15 07:40:05;;;;;;;12.73;7.43;;;;;;;;;;4972246;28;21004;-66
2023/09/15 07:42:33;;;;;;;11.80;7.03;;;;;;;;;;4971840;28;20478;-66
2023/09/15 07:44:59;;;;;;;11.80;6.60;;;;;;;;;;4972077;28;20844;-66
2023/09/15 07:47:25;;;;;;;18.10;7.63;;;;;;;;;;4966035;28;20425;-66
2023/09/15 07:49:51;;;;;;;16.00;7.77;;;;;;;;;;4952867;28;20514;-66
2023/09/15 07:52:18;;;;;;;11.13;7.20;;;;;;;;;;4953170;28;21154;-66
2023/09/15 07:54:44;;;;;;;12.10;8.70;;;;;;;;;;4962646;28;20852;-66
2023/09/15 07:57:10;;;;;;;15.37;7.60;;;;;;;;;;4972700;28;20511;-66
2023/09/15 07:59:36;;;;;;;12.83;8.27;;;;;;;;;;4960650;28;21016;-64
2023/09/15 08:02:04;;;;;;;14.53;7.03;;;;;;;;;;4975036;28;20444;-64
2023/09/15 08:04:30;;;;;;;10.00;7.00;;;;;;;;;;4975763;28;21002;-66
2023/09/15 08:06:56;;;;;;;11.50;6.60;;;;;;;;;;4975224;28;20417;-65
2023/09/15 08:09:22;;;;;;;91.63;22.03;;;;;;;;;;4956705;29;20416;-65
2023/09/15 08:11:48;;;;;;;34.07;10.77;;;;;;;;;;4956598;28;20444;-65
2023/09/15 08:14:14;;;;;;;25.53;7.43;;;;;;;;;;4956571;28;20428;-65
2023/09/15 08:16:40;;;;;;;33.93;12.20;;;;;;;;;;4956441;29;20523;-65
2023/09/15 08:19:08;;;;;;;16.10;7.43;;;;;;;;;;4967139;28;21006;-64
2023/09/15 08:21:33;;;;;;;16.50;8.60;;;;;;;;;;4975587;28;20505;-65
2023/09/15 08:24:00;;;;;;;12.57;8.57;;;;;;;;;;4975499;28;20974;-66
2023/09/15 08:26:26;;;;;;;10.13;6.30;;;;;;;;;;4963620;28;20451;-66
2023/09/15 08:28:52;;;;;;;14.03;7.43;;;;;;;;;;4966714;28;20427;-66
2023/09/15 08:31:18;;;;;;;14.47;7.20;;;;;;;;;;4974978;28;20767;-65
2023/09/15 08:33:44;;;;;;;18.33;8.00;;;;;;;;;;4975161;28;20780;-69
2023/09/15 08:36:10;;;;;;;11.63;7.93;;;;;;;;;;4974614;28;20415;-65
2023/09/15 08:38:36;;;;;;;10.80;7.33;;;;;;;;;;4975344;28;20459;-67
2023/09/15 08:41:05;;;;;;;10.13;7.57;;;;;;;;;;4975655;28;20432;-68
2023/09/15 08:43:32;;;;;;;14.23;7.87;;;;;;;;;;4974288;28;20430;-69
2023/09/15 08:45:59;;;;;;;10.47;7.03;;;;;;;;;;4974895;28;20423;-66
2023/09/15 08:48:28;;;;;;;11.83;7.13;;;;;;;;;;4964663;28;20424;-66
2023/09/15 08:50:55;;;;;;;10.33;6.37;;;;;;;;;;4955740;29;20441;-66
2023/09/15 08:53:22;;;;;;;12.03;7.40;;;;;;;;;;4955682;28;20427;-66
2023/09/15 08:55:48;;;;;;;14.90;7.07;;;;;;;;;;4956022;28;20967;-66
2023/09/15 08:58:14;;;;;;;10.73;7.70;;;;;;;;;;4955785;28;20816;-66
2023/09/15 09:00:40;;;;;;;11.20;6.63;;;;;;;;;;4955308;29;20453;-67
2023/09/15 09:03:06;;;;;;;13.60;7.77;;;;;;;;;;4956623;28;20781;-66
2023/09/15 09:05:33;;;;;;;18.20;7.97;;;;;;;;;;4954135;28;20424;-66
2023/09/15 09:08:00;;;;;;;17.93;6.80;;;;;;;;;;4955349;28;20429;-66
2023/09/15 09:10:26;;;;;;;12.57;7.23;;;;;;;;;;4955961;28;20416;-65
2023/09/15 09:12:52;;;;;;;10.60;6.70;;;;;;;;;;4959552;28;20450;-66
2023/09/15 09:15:21;;;;;;;12.57;8.53;;;;;;;;;;4974181;28;20943;-66
2023/09/15 09:17:47;;;;;;;12.67;7.97;;;;;;;;;;4970465;28;20560;-66
2023/09/15 09:20:28;;;;;;;11.63;8.03;;;;;;;;;;4969329;28;20979;-67
2023/09/15 09:22:54;;;;;;;12.33;7.07;;;;;;;;;;4974088;28;20760;-71
2023/09/15 09:25:30;;;;;;;16.17;6.90;;;;;;;;;;4974648;28;20404;-70
2023/09/15 09:27:56;;;;;;;11.37;7.20;;;;;;;;;;4969870;28;20431;-70
2023/09/15 09:30:29;;;;;;;12.30;7.13;;;;;;;;;;4954926;28;20423;-70
2023/09/15 09:32:58;;;;;;;9.40;6.77;;;;;;;;;;4965521;28;20429;-71
2023/09/15 09:35:25;;;;;;;8.63;6.40;;;;;;;;;;4972440;28;20527;-70
2023/09/15 09:37:52;;;;;;;10.80;6.03;;;;;;;;;;4969018;28;20420;-69
2023/09/15 09:40:18;;;;;;;9.60;6.50;;;;;;;;;;4953402;29;20417;-72
2023/09/15 09:42:45;;;;;;;13.07;7.90;;;;;;;;;;4957165;28;20439;-69
2023/09/15 09:45:11;;;;;;;13.73;8.33;;;;;;;;;;4973287;28;20462;-69
2023/09/15 09:47:37;;;;;;;9.43;7.20;;;;;;;;;;4967830;28;20428;-69
2023/09/15 09:50:12;;;;;;;9.30;6.93;;;;;;;;;;4977991;28;20422;-69
2023/09/15 09:52:39;;;;;;;8.53;6.20;;;;;;;;;;4977896;28;20898;-68
2023/09/15 09:55:06;;;;;;;9.13;5.87;;;;;;;;;;4974573;28;20430;-74
2023/09/15 09:57:33;;;;;;;10.00;6.80;;;;;;;;;;4973122;28;20436;-70
2023/09/15 09:59:59;;;;;;;11.63;7.10;;;;;;;;;;4974093;28;20470;-71
2023/09/15 10:02:26;;;;;;;12.87;7.77;;;;;;;;;;4973947;28;20641;-71
2023/09/15 10:04:53;;;;;;;13.70;7.10;;;;;;;;;;4974492;28;20411;-71
2023/09/15 10:07:19;;;;;;;11.07;7.47;;;;;;;;;;4974186;28;20927;-71
2023/09/15 10:09:45;;;;;;;11.43;6.30;;;;;;;;;;4974112;28;20411;-71
2023/09/15 10:12:12;;;;;;;16.50;8.23;;;;;;;;;;4974010;28;20986;-71
2023/09/15 10:14:38;;;;;;;12.47;7.33;;;;;;;;;;4972576;28;20450;-71
2023/09/15 10:17:04;;;;;;;11.50;6.73;;;;;;;;;;4973762;28;20412;-70
2023/09/15 10:19:31;;;;;;;9.33;6.70;;;;;;;;;;4973319;28;20459;-71
2023/09/15 10:21:57;;;;;;;9.90;6.70;;;;;;;;;;4973866;28;20938;-71
2023/09/15 10:24:23;;;;;;;10.17;6.97;;;;;;;;;;4973526;28;20923;-71
2023/09/15 10:26:49;;;;;;;10.23;7.13;;;;;;;;;;4969391;28;20436;-71
2023/09/15 10:29:15;;;;;;;11.03;7.17;;;;;;;;;;4964164;28;20427;-71
2023/09/15 10:31:47;;;;;;;12.33;7.73;;;;;;;;;;4972310;28;20432;-71
2023/09/15 10:34:15;;;;;;;18.67;6.90;;;;;;;;;;4973334;28;20989;-71
2023/09/15 10:36:41;;;;;;;10.17;6.33;;;;;;;;;;4972834;28;20845;-71
2023/09/15 10:39:12;;;;;;;12.23;6.57;;;;;;;;;;4973305;28;20992;-71
2023/09/15 10:41:38;;;;;;;10.83;6.67;;;;;;;;;;4973563;28;20442;-71
2023/09/15 10:44:04;;;;;;;14.97;8.00;;;;;;;;;;4984623;28;20824;-71
2023/09/15 10:46:34;;;;;;;11.33;6.50;;;;;;;;;;4992945;28;20488;-71
2023/09/15 10:49:01;;;;;;;17.80;6.60;;;;;;;;;;4992723;28;20438;-71
2023/09/15 10:51:27;;;;;;;9.87;6.70;;;;;;;;;;4991859;28;20439;-71
2023/09/15 10:53:56;;;;;;;14.33;7.30;;;;;;;;;;4992778;28;20446;-71
2023/09/15 10:56:22;;;;;;;8.90;6.97;;;;;;;;;;4992761;28;20421;-72
2023/09/15 10:58:48;;;;;;;11.90;6.07;;;;;;;;;;4992946;28;20514;-71
2023/09/15 11:01:15;;;;;;;10.67;6.50;;;;;;;;;;4992731;28;20480;-71
2023/09/15 11:03:42;;;;;;;10.80;6.70;;;;;;;;;;4995762;28;20466;-71
2023/09/15 11:06:15;;;;;;;8.90;6.23;;;;;;;;;;4996093;28;20418;-71
2023/09/15 11:08:41;;;;;;;8.40;6.10;;;;;;;;;;5009228;28;20415;-72
2023/09/15 11:11:09;;;;;;;8.50;6.20;;;;;;;;;;5012872;28;20523;-71
2023/09/15 11:13:36;;;;;;;15.37;6.70;;;;;;;;;;5012472;28;20479;-71
2023/09/15 11:16:03;;;;;;;8.40;6.00;;;;;;;;;;5005076;28;20423;-71
2023/09/15 11:18:32;;;;;;;8.43;6.00;;;;;;;;;;4995684;28;20525;-70
2023/09/15 11:20:58;;;;;;;8.87;6.37;;;;;;;;;;4995169;28;20438;-73
2023/09/15 11:23:25;;;;;;;17.40;6.80;;;;;;;;;;5002612;28;20407;-70
2023/09/15 11:26:01;;;;;;;9.73;5.57;;;;;;;;;;5015978;28;20494;-73
2023/09/15 11:28:28;;;;;;;10.10;5.20;;;;;;;;;;5016640;28;20411;-70
2023/09/15 11:30:54;;;;;;;7.97;6.60;;;;;;;;;;5016612;28;20423;-71
2023/09/15 11:33:20;;;;;;;9.23;6.50;;;;;;;;;;5016006;28;20433;-70
2023/09/15 11:35:50;;;;;;;8.50;6.30;;;;;;;;;;5008277;28;20426;-70
2023/09/15 11:38:16;;;;;;;11.43;5.87;;;;;;;;;;4998717;28;20459;-71
2023/09/15 11:40:50;;;;;;;14.73;5.80;;;;;;;;;;4998910;28;20463;-71
2023/09/15 11:43:17;;;;;;;11.20;6.00;;;;;;;;;;4995607;28;20921;-71
2023/09/15 11:45:43;;;;;;;9.43;5.97;;;;;;;;;;4992441;28;20478;-71
2023/09/15 11:48:10;;;;;;;7.40;5.70;;;;;;;;;;4992335;28;20752;-71
2023/09/15 11:50:37;;;;;;;12.23;5.90;;;;;;;;;;4992713;28;20423;-71
2023/09/15 11:53:03;;;;;;;8.30;5.80;;;;;;;;;;4969704;28;20452;-71
2023/09/15 11:55:30;;;;;;;10.00;6.43;;;;;;;;;;4958173;29;20433;-71
2023/09/15 11:57:56;;;;;;;9.13;5.70;;;;;;;;;;4957500;28;20423;-71
2023/09/15 12:00:24;;;;;;;5.77;5.00;;;;;;;;;;4958510;29;20419;-71
2023/09/15 12:02:50;;;;;;;8.73;5.27;;;;;;;;;;4968641;28;20754;-71
2023/09/15 12:05:17;;;;;;;16.13;6.20;;;;;;;;;;4977589;28;20424;-71
2023/09/15 12:07:43;;;;;;;7.87;5.97;;;;;;;;;;4978887;28;20408;-71
2023/09/15 12:10:12;;;;;;;8.13;5.17;;;;;;;;;;4976801;28;20420;-71
2023/09/15 12:12:38;;;;;;;12.10;6.70;;;;;;;;;;4975162;28;20525;-72
2023/09/15 12:15:05;;;;;;;9.50;5.77;;;;;;;;;;4972490;28;20490;-72
2023/09/15 12:17:32;;;;;;;8.93;5.43;;;;;;;;;;4972707;28;20415;-71
2023/09/15 12:20:04;;;;;;;9.17;6.53;;;;;;;;;;4972631;28;20464;-71
2023/09/15 12:22:31;;;;;;;8.87;6.00;;;;;;;;;;4972341;28;20427;-71
2023/09/15 12:24:58;;;;;;;8.53;5.00;;;;;;;;;;4972589;28;20574;-71
2023/09/15 12:27:24;;;;;;;6.77;5.00;;;;;;;;;;4966010;28;20440;-70
2023/09/15 12:29:50;;;;;;;8.70;5.10;;;;;;;;;;4962531;28;20412;-71
2023/09/15 12:32:16;;;;;;;7.87;5.07;;;;;;;;;;4971583;28;20443;-71
2023/09/15 12:34:44;;;;;;;6.30;4.90;;;;;;;;;;4972197;28;20412;-71
2023/09/15 12:37:10;;;;;;;6.60;4.30;;;;;;;;;;4970452;28;20428;-71
2023/09/15 12:39:36;;;;;;;4.30;3.53;;;;;;;;;;4971724;28;20471;-71
2023/09/15 12:42:05;;;;;;;6.20;4.23;;;;;;;;;;4973599;28;20899;-71
2023/09/15 12:44:32;;;;;;;5.40;4.23;;;;;;;;;;4974592;28;20461;-71
2023/09/15 12:46:58;;;;;;;5.67;4.40;;;;;;;;;;4975885;28;21020;-71
2023/09/15 12:49:24;;;;;;;5.67;4.47;;;;;;;;;;4975812;28;20488;-71
2023/09/15 12:51:50;;;;;;;5.70;4.60;;;;;;;;;;4975391;28;20435;-71
2023/09/15 12:54:16;;;;;;;5.90;4.57;;;;;;;;;;4975317;28;20523;-70
2023/09/15 12:56:42;;;;;;;5.80;4.20;;;;;;;;;;4975814;28;20418;-71
2023/09/15 12:59:08;;;;;;;6.47;4.27;;;;;;;;;;4975353;28;20467;-71
2023/09/15 13:01:34;;;;;;;7.13;5.40;;;;;;;;;;4975048;28;20482;-71
2023/09/15 13:04:00;;;;;;;5.90;4.83;;;;;;;;;;4973311;28;20427;-71
2023/09/15 13:06:26;;;;;;;7.47;4.97;;;;;;;;;;4975382;28;20423;-71
2023/09/15 13:08:52;;;;;;;6.57;5.10;;;;;;;;;;4975059;28;20509;-71
2023/09/15 13:11:18;;;;;;;7.30;5.47;;;;;;;;;;4975176;28;20486;-71
2023/09/15 13:13:44;;;;;;;7.17;5.57;;;;;;;;;;4973998;28;20451;-71
2023/09/15 13:16:10;;;;;;;10.27;5.30;;;;;;;;;;4975563;28;20420;-71
2023/09/15 13:18:36;;;;;;;10.77;5.70;;;;;;;;;;4975718;28;20459;-71
2023/09/15 13:21:02;;;;;;;9.87;6.13;;;;;;;;;;4975383;28;20959;-71
2023/09/15 13:23:28;;;;;;;10.00;5.73;;;;;;;;;;4975385;28;20951;-72
2023/09/15 13:25:54;;;;;;;10.57;6.47;;;;;;;;;;4975551;28;20404;-72
2023/09/15 13:28:20;;;;;;;7.13;5.73;;;;;;;;;;4975326;28;20466;-72
2023/09/15 13:30:46;;;;;;;10.00;6.23;;;;;;;;;;4975319;28;20930;-71
2023/09/15 13:33:12;;;;;;;8.97;5.80;;;;;;;;;;4975382;28;20447;-72
2023/09/15 13:35:38;;;;;;;7.13;5.03;;;;;;;;;;4975248;28;20419;-72
2023/09/15 13:38:04;;;;;;;8.43;6.30;;;;;;;;;;4975220;28;20412;-72
2023/09/15 13:40:30;;;;;;;14.30;7.40;;;;;;;;;;4975352;28;20939;-72
2023/09/15 13:42:56;;;;;;;8.87;6.73;;;;;;;;;;4975058;28;20419;-71
2023/09/15 13:45:22;;;;;;;13.53;5.97;;;;;;;;;;4975116;28;20412;-72
2023/09/15 13:47:48;;;;;;;10.83;6.30;;;;;;;;;;4975180;28;20422;-72
2023/09/15 13:50:14;;;;;;;10.10;5.60;;;;;;;;;;4974997;28;20412;-72
2023/09/15 13:52:39;;;;;;;9.33;6.40;;;;;;;;;;4978316;28;20412;-72
2023/09/15 13:55:07;;;;;;;8.03;6.20;;;;;;;;;;4980032;28;20419;-71
2023/09/15 13:57:38;;;;;;;8.97;6.30;;;;;;;;;;4978327;28;20420;-72
2023/09/15 14:00:04;;;;;;;8.77;5.70;;;;;;;;;;4974590;28;20807;-72
2023/09/15 14:02:30;;;;;;;9.37;6.13;;;;;;;;;;4974496;28;20451;-72
2023/09/15 14:04:57;;;;;;;11.37;6.30;;;;;;;;;;4974302;28;20827;-72
2023/09/15 14:07:24;;;;;;;9.10;6.33;;;;;;;;;;4974427;28;20752;-72
2023/09/15 14:09:50;;;;;;;9.90;6.70;;;;;;;;;;4974613;28;20407;-72
2023/09/15 14:12:16;;;;;;;10.30;6.47;;;;;;;;;;4974276;28;20440;-72
2023/09/15 14:14:42;;;;;;;11.00;7.27;;;;;;;;;;4974640;28;20423;-72
2023/09/15 14:17:08;;;;;;;10.97;6.93;;;;;;;;;;4974288;28;20455;-73
2023/09/15 14:19:34;;;;;;;8.30;6.20;;;;;;;;;;4974496;28;21017;-72
2023/09/15 14:22:00;;;;;;;10.13;6.67;;;;;;;;;;4974036;28;20427;-72
2023/09/15 14:24:29;;;;;;;7.90;6.23;;;;;;;;;;4973211;28;20409;-72
2023/09/15 14:26:56;;;;;;;9.83;7.00;;;;;;;;;;4974220;28;20444;-72
2023/09/15 14:29:22;;;;;;;8.50;5.97;;;;;;;;;;4965275;28;20448;-72
2023/09/15 14:31:48;;;;;;;9.37;6.33;;;;;;;;;;4965848;28;20566;-72
2023/09/15 14:34:14;;;;;;;15.10;7.10;;;;;;;;;;4988103;28;20452;-72
2023/09/15 14:36:40;;;;;;;9.27;6.30;;;;;;;;;;4996377;28;20449;-72
2023/09/15 14:39:07;;;;;;;13.37;7.00;;;;;;;;;;4973562;28;20455;-72
2023/09/15 14:41:34;;;;;;;11.70;7.00;;;;;;;;;;4974034;28;20436;-72
2023/09/15 14:44:00;;;;;;;10.77;5.93;;;;;;;;;;4973843;28;20408;-72
2023/09/15 14:46:26;;;;;;;9.63;7.17;;;;;;;;;;4973750;28;20419;-72
2023/09/15 14:48:52;;;;;;;10.87;6.50;;;;;;;;;;4973666;28;20502;-72
2023/09/15 14:51:18;;;;;;;9.10;6.57;;;;;;;;;;4974260;28;20844;-72
2023/09/15 14:53:44;;;;;;;9.40;6.60;;;;;;;;;;4974023;28;20416;-72
2023/09/15 14:56:10;;;;;;;10.10;5.93;;;;;;;;;;4974453;28;20892;-72
2023/09/15 14:58:37;;;;;;;8.43;6.20;;;;;;;;;;4977329;28;20978;-72
2023/09/15 15:01:03;;;;;;;11.23;5.73;;;;;;;;;;4978854;28;20474;-72
2023/09/15 15:03:29;;;;;;;9.60;6.83;;;;;;;;;;4977029;28;20412;-72
2023/09/15 15:05:55;;;;;;;12.50;7.07;;;;;;;;;;4977883;28;20403;-72
2023/09/15 15:08:20;;;;;;;8.30;6.47;;;;;;;;;;4974701;28;20447;-72
2023/09/15 15:10:46;;;;;;;8.20;6.00;;;;;;;;;;4974905;28;20571;-72
2023/09/15 15:13:12;;;;;;;11.30;6.83;;;;;;;;;;4973540;28;20427;-72
2023/09/15 15:15:45;;;;;;;8.03;6.77;;;;;;;;;;4972393;28;20423;-72
2023/09/15 15:18:18;;;;;;;17.03;7.40;;;;;;;;;;4971462;28;20419;-73
2023/09/15 15:20:46;;;;;;;9.80;6.43;;;;;;;;;;4970987;28;20997;-73
2023/09/15 15:23:12;;;;;;;9.00;6.37;;;;;;;;;;4977071;28;20941;-73
2023/09/15 15:25:38;;;;;;;10.80;6.90;;;;;;;;;;4973405;28;20408;-73
2023/09/15 15:28:04;;;;;;;9.07;6.80;;;;;;;;;;4973517;28;20408;-73
2023/09/15 15:30:33;;;;;;;9.73;6.60;;;;;;;;;;4973378;28;20431;-73
2023/09/15 15:32:59;;;;;;;8.47;6.40;;;;;;;;;;4972938;28;20430;-72
2023/09/15 15:35:26;;;;;;;9.27;6.53;;;;;;;;;;4973143;28;20503;-73
2023/09/15 15:37:53;;;;;;;9.90;7.07;;;;;;;;;;4971777;28;20432;-73
2023/09/15 15:40:18;;;;;;;8.67;6.27;;;;;;;;;;4972579;28;20485;-72
2023/09/15 15:42:45;;;;;;;10.40;7.20;;;;;;;;;;4972650;28;20451;-73
2023/09/15 15:45:11;;;;;;;11.20;7.67;;;;;;;;;;4973308;28;20412;-72
2023/09/15 15:47:37;;;;;;;14.70;7.47;;;;;;;;;;4972828;28;20419;-72
2023/09/15 15:50:03;;;;;;;10.90;7.33;;;;;;;;;;4972915;28;20430;-73
2023/09/15 15:52:29;;;;;;;10.20;7.03;;;;;;;;;;4972684;28;20497;-72
2023/09/15 15:54:55;;;;;;;11.73;8.70;;;;;;;;;;4972485;28;20506;-73
2023/09/15 15:57:21;;;;;;;9.87;7.27;;;;;;;;;;4972758;28;20426;-75
2023/09/15 15:59:47;;;;;;;7.47;6.20;;;;;;;;;;4972186;28;20471;-73
2023/09/15 16:02:13;;;;;;;17.23;7.70;;;;;;;;;;4972191;28;20964;-73
2023/09/15 16:04:39;;;;;;;10.93;7.07;;;;;;;;;;4972274;28;20420;-73
2023/09/15 16:07:05;;;;;;;11.60;7.90;;;;;;;;;;4968312;28;20416;-73
2023/09/15 16:09:32;;;;;;;11.40;7.30;;;;;;;;;;4968480;28;20424;-72
2023/09/15 16:11:59;;;;;;;10.90;7.17;;;;;;;;;;4972223;28;20535;-72
2023/09/15 16:14:25;;;;;;;10.90;7.00;;;;;;;;;;4967475;28;20452;-73
2023/09/15 16:16:51;;;;;;;11.60;7.80;;;;;;;;;;4975653;28;20853;-72
2023/09/15 16:19:17;;;;;;;10.73;7.00;;;;;;;;;;4976677;28;20605;-72
2023/09/15 16:21:43;;;;;;;15.80;8.50;;;;;;;;;;4975902;28;20439;-72
2023/09/15 16:24:12;;;;;;;10.90;7.67;;;;;;;;;;4975851;28;20412;-72
2023/09/15 16:26:38;;;;;;;12.20;7.40;;;;;;;;;;4967662;28;20447;-73
2023/09/15 16:29:04;;;;;;;11.27;8.10;;;;;;;;;;4975579;28;20415;-73
2023/09/15 16:31:33;;;;;;;11.73;7.97;;;;;;;;;;4976087;28;20436;-73
2023/09/15 16:33:59;;;;;;;11.83;7.70;;;;;;;;;;4976271;28;20411;-72
2023/09/15 16:36:25;;;;;;;12.27;8.50;;;;;;;;;;4974661;28;20981;-72
2023/09/15 16:38:52;;;;;;;12.70;7.23;;;;;;;;;;4976112;28;20455;-72
2023/09/15 16:41:18;;;;;;;9.67;7.10;;;;;;;;;;4976287;28;20474;-72
2023/09/15 16:43:44;;;;;;;10.73;7.50;;;;;;;;;;4974193;28;20811;-72
2023/09/15 16:46:10;;;;;;;10.80;8.00;;;;;;;;;;4975746;28;20522;-72
2023/09/15 16:48:36;;;;;;;10.13;7.83;;;;;;;;;;4960408;28;20424;-72
2023/09/15 16:51:02;;;;;;;13.13;8.60;;;;;;;;;;4956372;29;20455;-72
2023/09/15 16:53:28;;;;;;;14.23;8.13;;;;;;;;;;4955813;29;20421;-71
2023/09/15 16:55:55;;;;;;;10.40;7.23;;;;;;;;;;4962725;28;20419;-71
2023/09/15 16:58:21;;;;;;;12.50;8.00;;;;;;;;;;4974169;28;20450;-71
2023/09/15 17:00:47;;;;;;;12.07;7.60;;;;;;;;;;4975579;28;20451;-72
2023/09/15 17:03:13;;;;;;;11.10;7.80;;;;;;;;;;4975015;28;20448;-72
2023/09/15 17:05:39;;;;;;;15.00;8.10;;;;;;;;;;4975892;28;20474;-72
2023/09/15 17:08:08;;;;;;;13.50;8.00;;;;;;;;;;4985419;28;20408;-72
2023/09/15 17:10:37;;;;;;;11.20;8.20;;;;;;;;;;4984048;28;20989;-72
2023/09/15 17:13:03;;;;;;;11.97;7.70;;;;;;;;;;4994959;28;20482;-72
2023/09/15 17:15:29;;;;;;;11.97;8.27;;;;;;;;;;4993808;28;20423;-72
2023/09/15 17:17:56;;;;;;;13.80;7.67;;;;;;;;;;4993994;28;20411;-73
2023/09/15 17:20:22;;;;;;;13.70;9.17;;;;;;;;;;4994751;28;20949;-72
2023/09/15 17:22:48;;;;;;;13.00;8.30;;;;;;;;;;4994694;28;20482;-72
2023/09/15 17:25:14;;;;;;;12.53;7.67;;;;;;;;;;4975195;28;20416;-72
2023/09/15 17:27:45;;;;;;;18.67;9.37;;;;;;;;;;4975003;28;20888;-72
2023/09/15 17:30:11;;;;;;;12.67;8.80;;;;;;;;;;4973766;28;20498;-71
2023/09/15 17:32:37;;;;;;;14.10;8.60;;;;;;;;;;4974845;28;20777;-72
2023/09/15 17:35:03;;;;;;;12.47;8.03;;;;;;;;;;4975079;28;20420;-71
2023/09/15 17:37:33;;;;;;;12.77;8.70;;;;;;;;;;4974564;28;20847;-71
2023/09/15 17:39:59;;;;;;;17.63;10.27;;;;;;;;;;4974719;28;20467;-72
2023/09/15 17:42:25;;;;;;;15.63;9.37;;;;;;;;;;4974085;28;20428;-72
2023/09/15 17:44:51;;;;;;;14.67;9.00;;;;;;;;;;4973452;28;20471;-70
2023/09/15 17:47:17;;;;;;;19.13;8.13;;;;;;;;;;4974536;28;21008;-72
2023/09/15 17:50:04;;;;;;;18.70;9.77;;;;;;;;;;4973012;28;20427;-72
2023/09/15 17:52:30;;;;;;;19.13;12.03;;;;;;;;;;4974216;28;20446;-72
2023/09/15 17:54:56;;;;;;;15.90;10.90;;;;;;;;;;4977328;28;20472;-72
2023/09/15 17:57:23;;;;;;;12.27;9.03;;;;;;;;;;4985156;28;20447;-72
2023/09/15 17:59:49;;;;;;;15.47;9.80;;;;;;;;;;4982438;28;20905;-73
2023/09/15 18:02:15;;;;;;;14.90;9.90;;;;;;;;;;4974166;28;20451;-72
2023/09/15 18:04:44;;;;;;;15.20;10.23;;;;;;;;;;4974697;28;20904;-73
2023/09/15 18:07:10;;;;;;;13.07;9.30;;;;;;;;;;4974534;28;20442;-70
2023/09/15 18:09:36;;;;;;;15.63;10.43;;;;;;;;;;4973335;28;20483;-71
2023/09/15 18:12:03;;;;;;;14.13;9.00;;;;;;;;;;4974188;28;20439;-72
2023/09/15 18:14:29;;;;;;;15.37;10.20;;;;;;;;;;4974195;28;20500;-71
2023/09/15 18:16:55;;;;;;;16.83;10.23;;;;;;;;;;4973302;28;20807;-71
2023/09/15 18:19:23;;;;;;;14.27;10.40;;;;;;;;;;4973534;28;20503;-71
2023/09/15 18:21:49;;;;;;;15.23;10.07;;;;;;;;;;4974050;28;20431;-71
2023/09/15 18:24:15;;;;;;;20.67;9.67;;;;;;;;;;4972945;28;20436;-71
2023/09/15 18:26:41;;;;;;;13.87;9.40;;;;;;;;;;4958513;28;20479;-73
2023/09/15 18:29:07;;;;;;;14.83;8.93;;;;;;;;;;4954340;28;20444;-73
2023/09/15 18:31:33;;;;;;;13.17;9.67;;;;;;;;;;4953678;28;20463;-72
2023/09/15 18:33:59;;;;;;;19.47;10.20;;;;;;;;;;4954800;28;20417;-72
2023/09/15 18:36:26;;;;;;;17.27;11.20;;;;;;;;;;4954512;28;20421;-72
2023/09/15 18:38:52;;;;;;;19.83;10.97;;;;;;;;;;4953908;28;20468;-73
2023/09/15 18:41:20;;;;;;;15.10;10.30;;;;;;;;;;4954285;28;20425;-72
2023/09/15 18:43:46;;;;;;;17.30;11.30;;;;;;;;;;4954117;28;20590;-74
2023/09/15 18:46:12;;;;;;;16.40;10.17;;;;;;;;;;4966724;28;20485;-73
2023/09/15 18:48:38;;;;;;;17.90;10.77;;;;;;;;;;4973990;28;20416;-72
2023/09/15 18:51:04;;;;;;;17.83;11.60;;;;;;;;;;4973688;28;20431;-73
2023/09/15 18:53:30;;;;;;;22.20;12.10;;;;;;;;;;4973984;28;20908;-73
2023/09/15 18:55:56;;;;;;;22.03;11.40;;;;;;;;;;4985065;28;20442;-72
2023/09/15 18:58:22;;;;;;;20.47;11.33;;;;;;;;;;4985899;28;20491;-73
2023/09/15 19:00:48;;;;;;;21.40;10.13;;;;;;;;;;4976471;28;20794;-72
2023/09/15 19:03:14;;;;;;;30.77;12.90;;;;;;;;;;4973720;28;20459;-72
2023/09/15 19:05:40;;;;;;;19.47;10.93;;;;;;;;;;4974170;28;20939;-73
2023/09/15 19:08:07;;;;;;;19.20;11.53;;;;;;;;;;4974071;28;20400;-73
2023/09/15 19:10:33;;;;;;;22.37;11.87;;;;;;;;;;4970975;28;20543;-74
2023/09/15 19:13:00;;;;;;;18.90;11.77;;;;;;;;;;4962817;28;20424;-73
2023/09/15 19:15:27;;;;;;;19.13;12.40;;;;;;;;;;4974033;28;20422;-73
2023/09/15 19:17:53;;;;;;;19.60;12.10;;;;;;;;;;4969128;28;20434;-74
2023/09/15 19:20:20;;;;;;;23.50;12.00;;;;;;;;;;4973314;28;20506;-73
2023/09/15 19:22:46;;;;;;;20.13;11.80;;;;;;;;;;4973249;28;20426;-73
2023/09/15 19:25:12;;;;;;;20.97;12.17;;;;;;;;;;4973714;28;20412;-74
2023/09/15 19:27:38;;;;;;;19.50;12.13;;;;;;;;;;4973420;28;20419;-74
2023/09/15 19:30:04;;;;;;;23.13;12.40;;;;;;;;;;4972119;28;20447;-74
2023/09/15 19:32:32;;;;;;;17.30;11.57;;;;;;;;;;4972858;28;20448;-73
2023/09/15 19:34:58;;;;;;;21.03;12.13;;;;;;;;;;4973152;28;20938;-73
2023/09/15 19:37:25;;;;;;;19.07;12.47;;;;;;;;;;4972765;28;20502;-72
2023/09/15 19:39:51;;;;;;;22.70;13.50;;;;;;;;;;4973306;28;21010;-73
2023/09/15 19:42:17;;;;;;;26.10;12.80;;;;;;;;;;4971264;28;20483;-73
2023/09/15 19:44:43;;;;;;;17.63;10.70;;;;;;;;;;4972997;28;20857;-73
2023/09/15 19:47:09;;;;;;;18.60;10.83;;;;;;;;;;4973280;28;20420;-73
2023/09/15 19:49:36;;;;;;;17.43;11.07;;;;;;;;;;4973233;28;20815;-73
2023/09/15 19:52:02;;;;;;;18.60;11.20;;;;;;;;;;4972685;28;20444;-75
2023/09/15 19:54:29;;;;;;;18.60;10.40;;;;;;;;;;4972926;28;20423;-73
2023/09/15 19:56:55;;;;;;;17.10;10.60;;;;;;;;;;4971437;28;20432;-74
2023/09/15 19:59:21;;;;;;;17.37;11.87;;;;;;;;;;4972776;28;20562;-73
2023/09/15 20:01:47;;;;;;;16.70;10.13;;;;;;;;;;4972612;28;20451;-73
2023/09/15 20:04:15;;;;;;;20.63;12.10;;;;;;;;;;4972894;28;20422;-73
2023/09/15 20:06:41;;;;;;;17.40;11.47;;;;;;;;;;4965956;28;20470;-73
2023/09/15 20:09:07;;;;;;;20.53;12.10;;;;;;;;;;4972297;28;20427;-73
2023/09/15 20:11:33;;;;;;;21.90;12.30;;;;;;;;;;4971260;28;20526;-71
2023/09/15 20:13:59;;;;;;;20.83;12.63;;;;;;;;;;4972569;28;20431;-72
2023/09/15 20:16:27;;;;;;;18.97;11.77;;;;;;;;;;4972972;28;20781;-72
2023/09/15 20:18:53;;;;;;;19.80;10.80;;;;;;;;;;4972696;28;20463;-73
2023/09/15 20:21:19;;;;;;;15.43;10.27;;;;;;;;;;4972653;28;20448;-71
2023/09/15 20:23:45;;;;;;;14.53;10.30;;;;;;;;;;4978162;28;20439;-73
2023/09/15 20:26:11;;;;;;;20.63;12.27;;;;;;;;;;4995331;28;20408;-73
2023/09/15 20:28:37;;;;;;;19.40;12.50;;;;;;;;;;4994771;28;20428;-73